createdAt,value
2018-11-04T00:00:21.136Z,90.77
2018-11-04T00:02:48.974Z,91.18
2018-11-04T00:05:16.412Z,91.78
2018-11-04T00:07:43.985Z,91.45
2018-11-04T00:10:12.051Z,90.55
2018-11-04T00:12:39.504Z,90.28
2018-11-04T00:15:08.708Z,89.09
2018-11-04T00:17:37.488Z,87.82
2018-11-04T00:20:08.152Z,88.36
2018-11-04T00:22:35.515Z,87.69
2018-11-04T00:25:02.904Z,88.28
2018-11-04T00:27:30.166Z,88.67
2018-11-04T00:29:57.419Z,90.46
2018-11-04T00:32:24.424Z,90.13
2018-11-04T00:34:51.680Z,90.35
2018-11-04T00:37:18.991Z,89.83
2018-11-04T00:39:46.192Z,89.97
2018-11-04T00:42:13.289Z,89.05
2018-11-04T00:44:40.487Z,88.53
2018-11-04T00:47:07.696Z,86.78
2018-11-04T00:49:35.175Z,87.95
2018-11-04T00:52:02.753Z,87.48
2018-11-04T00:54:30.035Z,87.98
2018-11-04T00:56:57.430Z,87.96
2018-11-04T00:59:24.552Z,87.89
2018-11-04T01:01:51.837Z,86.63
2018-11-04T01:04:19.352Z,88.45
2018-11-04T01:06:46.515Z,87.25
2018-11-04T01:09:15.339Z,87.54
2018-11-04T01:11:42.313Z,87.44
2018-11-04T01:14:09.973Z,87.01
2018-11-04T01:16:37.160Z,88.21
2018-11-04T01:19:05.435Z,86.75
2018-11-04T01:21:32.603Z,86.55
2018-11-04T01:23:59.882Z,87.02
2018-11-04T01:26:27.016Z,87.17
2018-11-04T01:28:55.546Z,86.84
2018-11-04T01:31:22.697Z,86.96
2018-11-04T01:33:49.820Z,86.77
2018-11-04T01:36:17.023Z,85.95
2018-11-04T01:38:44.080Z,86.08
2018-11-04T01:41:11.363Z,88.57
2018-11-04T01:43:38.563Z,90.90
2018-11-04T01:46:05.672Z,90.36
2018-11-04T01:48:32.755Z,90.97
2018-11-04T01:50:59.854Z,89.62
2018-11-04T01:53:26.920Z,89.51
2018-11-04T01:55:54.048Z,90.84
2018-11-04T01:58:21.206Z,90.50
2018-11-04T02:00:48.404Z,90.92
2018-11-04T02:03:15.554Z,91.89
2018-11-04T02:05:42.641Z,91.09
2018-11-04T02:08:09.747Z,91.09
2018-11-04T02:10:36.833Z,93.80
2018-11-04T02:13:04.111Z,96.60
2018-11-04T02:15:31.200Z,98.74
2018-11-04T02:17:58.396Z,99.89
2018-11-04T02:20:25.635Z,100.00
2018-11-04T02:22:52.700Z,100.00
2018-11-04T02:25:19.872Z,100.00
2018-11-04T02:27:47.035Z,100.00
2018-11-04T02:30:15.567Z,100.00
2018-11-04T02:32:44.141Z,100.00
2018-11-04T02:35:12.707Z,100.00
2018-11-04T02:37:41.288Z,100.00
2018-11-04T02:40:08.523Z,100.00
2018-11-04T02:42:36.204Z,100.00
2018-11-04T02:45:03.684Z,100.00
2018-11-04T02:47:30.763Z,100.00
2018-11-04T02:49:57.819Z,100.00
2018-11-04T02:52:25.008Z,100.00
2018-11-04T02:54:57.532Z,100.00
2018-11-04T02:57:36.902Z,100.00
2018-11-04T03:00:14.044Z,100.00
2018-11-04T03:02:44.867Z,100.00
2018-11-04T03:05:12.119Z,100.00
2018-11-04T03:07:41.463Z,100.00
2018-11-04T03:10:09.973Z,100.00
2018-11-04T03:12:37.323Z,100.00
2018-11-04T03:15:04.508Z,100.00
2018-11-04T03:17:31.579Z,100.00
2018-11-04T03:19:58.774Z,100.00
2018-11-04T03:22:26.989Z,100.00
2018-11-04T03:24:54.057Z,100.00
2018-11-04T03:27:21.104Z,100.00
2018-11-04T03:29:48.272Z,100.00
2018-11-04T03:32:16.679Z,100.00
2018-11-04T03:34:43.744Z,100.00
2018-11-04T03:37:11.284Z,100.00
2018-11-04T03:39:38.459Z,100.00
2018-11-04T03:42:05.536Z,100.00
2018-11-04T03:44:32.650Z,100.00
2018-11-04T03:46:59.743Z,100.00
2018-11-04T03:49:26.796Z,100.00
2018-11-04T03:51:53.897Z,100.00
2018-11-04T03:54:20.952Z,100.00
2018-11-04T03:56:48.004Z,100.00
2018-11-04T03:59:15.320Z,100.00
2018-11-04T04:01:42.389Z,100.00
2018-11-04T04:04:10.798Z,100.00
2018-11-04T04:06:37.991Z,100.00
2018-11-04T04:09:09.036Z,100.00
2018-11-04T04:11:36.283Z,100.00
2018-11-04T04:14:03.444Z,100.00
2018-11-04T04:16:30.524Z,100.00
2018-11-04T04:18:57.628Z,100.00
2018-11-04T04:21:24.706Z,100.00
2018-11-04T04:23:51.793Z,100.00
2018-11-04T04:26:18.873Z,100.00
2018-11-04T04:28:46.356Z,100.00
2018-11-04T04:31:13.526Z,100.00
2018-11-04T04:33:40.702Z,100.00
2018-11-04T04:36:08.983Z,100.00
2018-11-04T04:38:36.131Z,100.00
2018-11-04T04:41:03.343Z,100.00
2018-11-04T04:43:30.855Z,100.00
2018-11-04T04:45:57.915Z,100.00
2018-11-04T04:48:24.978Z,100.00
2018-11-04T04:50:52.548Z,100.00
2018-11-04T04:53:22.431Z,100.00
2018-11-04T04:55:49.941Z,100.00
2018-11-04T04:58:17.408Z,100.00
2018-11-04T05:00:44.575Z,100.00
2018-11-04T05:03:11.644Z,100.00
2018-11-04T05:05:39.028Z,100.00
2018-11-04T05:08:06.214Z,100.00
2018-11-04T05:10:33.379Z,100.00
2018-11-04T05:13:00.450Z,100.00
2018-11-04T05:15:27.530Z,100.00
2018-11-04T05:17:55.040Z,100.00
2018-11-04T05:20:22.107Z,100.00
2018-11-04T05:22:49.159Z,100.00
2018-11-04T05:25:16.256Z,100.00
2018-11-04T05:27:43.416Z,100.00
2018-11-04T05:30:11.534Z,100.00
2018-11-04T05:32:38.698Z,100.00
2018-11-04T05:35:07.612Z,100.00
2018-11-04T05:37:35.655Z,100.00
2018-11-04T05:40:04.428Z,100.00
2018-11-04T05:42:31.592Z,100.00
2018-11-04T05:44:58.684Z,100.00
2018-11-04T05:47:25.774Z,100.00
2018-11-04T05:49:53.179Z,100.00
2018-11-04T05:52:20.280Z,100.00
2018-11-04T05:54:47.440Z,100.00
2018-11-04T05:57:14.667Z,100.00
2018-11-04T05:59:41.819Z,100.00
2018-11-04T06:02:08.971Z,100.00
2018-11-04T06:04:36.240Z,100.00
2018-11-04T06:07:03.397Z,100.00
2018-11-04T06:09:30.473Z,100.00
2018-11-04T06:11:57.580Z,100.00
2018-11-04T06:14:24.695Z,100.00
2018-11-04T06:16:52.300Z,100.00
2018-11-04T06:19:19.471Z,100.00
2018-11-04T06:21:46.566Z,100.00
2018-11-04T06:24:13.700Z,100.00
2018-11-04T06:26:40.761Z,100.00
2018-11-04T06:29:08.367Z,100.00
2018-11-04T06:31:35.446Z,100.00
2018-11-04T06:34:02.527Z,100.00
2018-11-04T06:36:29.695Z,100.00
2018-11-04T06:38:56.837Z,100.00
2018-11-04T06:41:24.336Z,100.00
2018-11-04T06:43:51.728Z,100.00
2018-11-04T06:46:18.844Z,100.00
2018-11-04T06:48:45.960Z,100.00
2018-11-04T06:51:13.027Z,100.00
2018-11-04T06:53:40.115Z,100.00
2018-11-04T06:56:07.188Z,100.00
2018-11-04T06:58:34.427Z,100.00
2018-11-04T07:01:01.514Z,100.00
2018-11-04T07:03:28.607Z,100.00
2018-11-04T07:05:55.769Z,100.00
2018-11-04T07:08:22.976Z,100.00
2018-11-04T07:10:55.107Z,100.00
2018-11-04T07:13:23.457Z,100.00
2018-11-04T07:15:50.559Z,100.00
2018-11-04T07:18:17.713Z,100.00
2018-11-04T07:20:44.805Z,100.00
2018-11-04T07:23:11.912Z,100.00
2018-11-04T07:25:39.272Z,100.00
2018-11-04T07:28:06.626Z,100.00
2018-11-04T07:30:34.046Z,100.00
2018-11-04T07:33:01.140Z,100.00
2018-11-04T07:35:28.554Z,100.00
2018-11-04T07:37:56.101Z,100.00
2018-11-04T07:40:23.750Z,100.00
2018-11-04T07:42:51.270Z,100.00
2018-11-04T07:45:18.464Z,100.00
2018-11-04T07:47:45.734Z,100.00
2018-11-04T07:50:14.626Z,100.00
2018-11-04T07:52:42.732Z,100.00
2018-11-04T07:55:10.450Z,100.00
2018-11-04T07:57:40.568Z,100.00
2018-11-04T08:00:10.908Z,100.00
2018-11-04T08:02:38.135Z,100.00
2018-11-04T08:05:06.546Z,100.00
2018-11-04T08:07:33.756Z,100.00
2018-11-04T08:10:01.140Z,100.00
2018-11-04T08:12:28.458Z,100.00
2018-11-04T08:14:56.065Z,100.00
2018-11-04T08:17:23.301Z,100.00
2018-11-04T08:19:50.699Z,100.00
2018-11-04T08:22:20.924Z,100.00
2018-11-04T08:24:51.193Z,100.00
2018-11-04T08:27:21.207Z,100.00
2018-11-04T08:29:52.968Z,100.00
2018-11-04T08:32:22.660Z,100.00
2018-11-04T08:34:52.811Z,100.00
2018-11-04T08:37:23.121Z,100.00
2018-11-04T08:39:53.432Z,100.00
2018-11-04T08:42:23.199Z,100.00
2018-11-04T08:44:52.733Z,100.00
2018-11-04T08:47:23.371Z,100.00
2018-11-04T08:49:50.994Z,100.00
2018-11-04T08:52:18.170Z,100.00
2018-11-04T08:54:45.261Z,100.00
2018-11-04T08:57:13.121Z,100.00
2018-11-04T08:59:43.967Z,100.00
2018-11-04T09:02:11.512Z,100.00
2018-11-04T09:04:38.952Z,100.00
2018-11-04T09:07:06.168Z,100.00
2018-11-04T09:09:33.671Z,100.00
2018-11-04T09:12:00.907Z,100.00
2018-11-04T09:14:28.294Z,100.00
2018-11-04T09:16:55.927Z,100.00
2018-11-04T09:19:22.984Z,100.00
2018-11-04T09:21:50.629Z,100.00
2018-11-04T09:24:19.686Z,100.00
2018-11-04T09:26:46.991Z,99.24
2018-11-04T09:29:14.233Z,100.00
2018-11-04T09:31:41.723Z,100.00
2018-11-04T09:34:08.897Z,100.00
2018-11-04T09:36:36.076Z,100.00
2018-11-04T09:39:05.707Z,100.00
2018-11-04T09:41:32.791Z,100.00
2018-11-04T09:44:00.208Z,100.00
2018-11-04T09:46:27.276Z,100.00
2018-11-04T09:48:54.378Z,100.00
2018-11-04T09:51:21.502Z,100.00
2018-11-04T09:53:49.015Z,100.00
2018-11-04T09:56:16.113Z,100.00
2018-11-04T09:58:43.277Z,100.00
2018-11-04T10:01:10.352Z,100.00
2018-11-04T10:03:37.732Z,100.00
2018-11-04T10:06:04.824Z,100.00
2018-11-04T10:08:31.892Z,100.00
2018-11-04T10:10:58.983Z,100.00
2018-11-04T10:13:26.295Z,100.00
2018-11-04T10:15:53.292Z,100.00
2018-11-04T10:18:20.838Z,100.00
2018-11-04T10:20:48.319Z,100.00
2018-11-04T10:23:15.091Z,100.00
2018-11-04T10:25:42.493Z,100.00
2018-11-04T10:28:09.665Z,100.00
2018-11-04T10:30:36.742Z,100.00
2018-11-04T10:33:03.862Z,100.00
2018-11-04T10:35:30.991Z,100.00
2018-11-04T10:37:58.149Z,100.00
2018-11-04T10:40:25.485Z,100.00
2018-11-04T10:42:52.551Z,100.00
2018-11-04T10:45:19.620Z,100.00
2018-11-04T10:47:46.729Z,100.00
2018-11-04T10:50:13.884Z,100.00
2018-11-04T10:52:41.068Z,100.00
2018-11-04T10:55:09.501Z,100.00
2018-11-04T10:57:36.648Z,100.00
2018-11-04T11:00:04.799Z,100.00
2018-11-04T11:02:31.916Z,100.00
2018-11-04T11:05:03.628Z,100.00
2018-11-04T11:07:30.714Z,100.00
2018-11-04T11:09:57.799Z,100.00
2018-11-04T11:12:24.867Z,100.00
2018-11-04T11:14:51.968Z,100.00
2018-11-04T11:17:19.119Z,100.00
2018-11-04T11:19:46.196Z,100.00
2018-11-04T11:22:13.657Z,100.00
2018-11-04T11:24:40.725Z,100.00
2018-11-04T11:27:07.808Z,100.00
2018-11-04T11:29:34.931Z,100.00
2018-11-04T11:32:02.020Z,100.00
2018-11-04T11:34:29.191Z,100.00
2018-11-04T11:36:56.283Z,100.00
2018-11-04T11:39:23.440Z,100.00
2018-11-04T11:41:50.710Z,100.00
2018-11-04T11:44:17.783Z,100.00
2018-11-04T11:46:44.901Z,100.00
2018-11-04T11:49:18.972Z,100.00
2018-11-04T11:51:46.048Z,100.00
2018-11-04T11:54:13.206Z,100.00
2018-11-04T11:56:40.315Z,100.00
2018-11-04T11:59:07.482Z,99.40
2018-11-04T12:01:34.564Z,99.90
2018-11-04T12:04:01.803Z,99.99
2018-11-04T12:06:28.888Z,99.71
2018-11-04T12:08:56.016Z,98.53
2018-11-04T12:11:23.084Z,98.09
2018-11-04T12:13:50.172Z,98.56
2018-11-04T12:16:17.260Z,99.02
2018-11-04T12:18:44.307Z,99.39
2018-11-04T12:21:11.531Z,100.00
2018-11-04T12:23:38.805Z,100.00
2018-11-04T12:26:05.885Z,100.00
2018-11-04T12:28:33.068Z,100.00
2018-11-04T12:31:00.243Z,100.00
2018-11-04T12:33:27.352Z,100.00
2018-11-04T12:35:54.413Z,100.00
2018-11-04T12:38:22.066Z,100.00
2018-11-04T12:40:49.297Z,100.00
2018-11-04T12:43:16.415Z,100.00
2018-11-04T12:45:43.627Z,100.00
2018-11-04T12:48:10.661Z,100.00
2018-11-04T12:50:38.021Z,100.00
2018-11-04T12:53:05.116Z,94.70
2018-11-04T12:55:32.254Z,90.30
2018-11-04T12:57:59.329Z,91.51
2018-11-04T13:00:26.387Z,94.30
2018-11-04T13:02:53.470Z,96.89
2018-11-04T13:05:20.579Z,97.61
2018-11-04T13:07:47.928Z,98.51
2018-11-04T13:10:15.115Z,99.46
2018-11-04T13:12:42.075Z,99.68
2018-11-04T13:15:10.860Z,99.75
2018-11-04T13:17:38.019Z,100.00
2018-11-04T13:20:05.287Z,99.90
2018-11-04T13:22:32.372Z,99.69
2018-11-04T13:24:59.535Z,100.00
2018-11-04T13:27:26.680Z,100.00
2018-11-04T13:29:53.756Z,100.00
2018-11-04T13:32:20.831Z,100.00
2018-11-04T13:34:47.911Z,100.00
2018-11-04T13:37:15.025Z,100.00
2018-11-04T13:39:42.224Z,100.00
2018-11-04T13:42:09.380Z,100.00
2018-11-04T13:44:36.463Z,99.79
2018-11-04T13:47:03.891Z,100.00
2018-11-04T13:49:31.050Z,98.24
2018-11-04T13:51:58.037Z,99.05
2018-11-04T13:54:25.125Z,97.71
2018-11-04T13:56:52.419Z,97.68
2018-11-04T13:59:19.568Z,97.52
2018-11-04T14:01:46.656Z,97.21
2018-11-04T14:04:14.279Z,96.29
2018-11-04T14:06:41.456Z,96.75
2018-11-04T14:09:08.767Z,97.06
2018-11-04T14:11:35.865Z,97.01
2018-11-04T14:14:03.191Z,96.12
2018-11-04T14:16:30.411Z,94.25
2018-11-04T14:18:57.476Z,95.57
2018-11-04T14:21:24.552Z,94.94
2018-11-04T14:23:51.791Z,94.11
2018-11-04T14:26:18.834Z,95.89
2018-11-04T14:28:45.910Z,94.48
2018-11-04T14:31:13.466Z,96.61
2018-11-04T14:33:40.501Z,98.57
2018-11-04T14:36:07.884Z,98.55
2018-11-04T14:38:35.454Z,98.96
2018-11-04T14:41:02.616Z,98.79
2018-11-04T14:43:29.760Z,99.35
2018-11-04T14:45:56.856Z,99.43
2018-11-04T14:48:23.923Z,99.60
2018-11-04T14:50:51.083Z,99.89
2018-11-04T14:53:18.593Z,100.00
2018-11-04T14:55:45.675Z,100.00
2018-11-04T14:58:12.736Z,100.00
2018-11-04T15:00:39.960Z,100.00
2018-11-04T15:03:08.418Z,100.00
2018-11-04T15:05:35.547Z,100.00
2018-11-04T15:08:02.847Z,100.00
2018-11-04T15:10:29.932Z,100.00
2018-11-04T15:12:57.490Z,100.00
2018-11-04T15:15:24.699Z,100.00
2018-11-04T15:17:51.875Z,100.00
2018-11-04T15:20:19.536Z,96.81
2018-11-04T15:22:48.454Z,98.46
2018-11-04T15:25:17.959Z,99.29
2018-11-04T15:27:45.197Z,100.00
2018-11-04T15:30:12.624Z,100.00
2018-11-04T15:32:41.561Z,100.00
2018-11-04T15:35:08.817Z,100.00
2018-11-04T15:37:36.171Z,100.00
2018-11-04T15:40:03.816Z,100.00
2018-11-04T15:42:31.007Z,100.00
2018-11-04T15:44:58.244Z,100.00
2018-11-04T15:47:25.402Z,100.00
2018-11-04T15:49:52.492Z,100.00
2018-11-04T15:52:19.612Z,100.00
2018-11-04T15:54:46.760Z,100.00
2018-11-04T15:57:15.429Z,98.48
2018-11-04T15:59:42.991Z,96.90
2018-11-04T16:02:10.234Z,99.90
2018-11-04T16:04:44.550Z,100.00
2018-11-04T16:07:04.740Z,100.00
2018-11-04T16:09:31.813Z,100.00
2018-11-04T16:11:58.881Z,100.00
2018-11-04T16:14:25.964Z,100.00
2018-11-04T16:16:53.067Z,100.00
2018-11-04T16:19:20.169Z,100.00
2018-11-04T16:21:47.379Z,100.00
2018-11-04T16:24:14.540Z,100.00
2018-11-04T16:26:41.727Z,100.00
2018-11-04T16:29:08.818Z,100.00
2018-11-04T16:31:36.224Z,100.00
2018-11-04T16:34:03.295Z,100.00
2018-11-04T16:36:30.375Z,100.00
2018-11-04T16:38:57.479Z,100.00
2018-11-04T16:41:24.711Z,100.00
2018-11-04T16:43:51.847Z,100.00
2018-11-04T16:46:18.865Z,100.00
2018-11-04T16:48:46.293Z,100.00
2018-11-04T16:51:13.396Z,100.00
2018-11-04T16:53:40.560Z,100.00
2018-11-04T16:56:08.534Z,100.00
2018-11-04T16:58:35.541Z,100.00
2018-11-04T17:01:02.627Z,100.00
2018-11-04T17:03:29.776Z,100.00
2018-11-04T17:05:56.865Z,100.00
2018-11-04T17:08:24.272Z,100.00
2018-11-04T17:10:51.369Z,100.00
2018-11-04T17:13:18.452Z,100.00
2018-11-04T17:15:45.536Z,99.96
2018-11-04T17:18:12.716Z,99.79
2018-11-04T17:20:39.901Z,100.00
2018-11-04T17:23:07.019Z,100.00
2018-11-04T17:25:34.719Z,100.00
2018-11-04T17:28:01.924Z,100.00
2018-11-04T17:30:29.007Z,100.00
2018-11-04T17:32:56.868Z,100.00
2018-11-04T17:35:24.151Z,100.00
2018-11-04T17:37:51.240Z,100.00
2018-11-04T17:40:18.469Z,100.00
2018-11-04T17:42:45.836Z,100.00
2018-11-04T17:45:14.671Z,100.00
2018-11-04T17:47:42.021Z,100.00
2018-11-04T17:50:13.851Z,100.00
2018-11-04T17:52:41.545Z,100.00
2018-11-04T17:55:09.147Z,100.00
2018-11-04T17:57:37.000Z,100.00
2018-11-04T18:00:04.948Z,100.00
2018-11-04T18:02:32.115Z,100.00
2018-11-04T18:04:59.616Z,100.00
2018-11-04T18:07:26.696Z,100.00
2018-11-04T18:09:54.024Z,100.00
2018-11-04T18:12:21.747Z,100.00
2018-11-04T18:14:49.020Z,100.00
2018-11-04T18:17:16.130Z,100.00
2018-11-04T18:19:43.215Z,100.00
2018-11-04T18:22:11.596Z,100.00
2018-11-04T18:24:40.545Z,100.00
2018-11-04T18:27:07.959Z,100.00
2018-11-04T18:29:36.129Z,100.00
2018-11-04T18:32:05.819Z,100.00
2018-11-04T18:34:35.147Z,100.00
2018-11-04T18:37:04.021Z,100.00
2018-11-04T18:39:31.107Z,100.00
2018-11-04T18:41:58.476Z,100.00
2018-11-04T18:44:25.714Z,100.00
2018-11-04T18:46:53.759Z,100.00
2018-11-04T18:49:20.862Z,100.00
2018-11-04T18:51:48.049Z,100.00
2018-11-04T18:54:16.468Z,100.00
2018-11-04T18:56:43.977Z,99.36
2018-11-04T18:59:11.198Z,97.58
2018-11-04T19:01:38.248Z,99.28
2018-11-04T19:04:06.553Z,98.45
2018-11-04T19:06:33.781Z,96.59
2018-11-04T19:09:00.839Z,94.82
2018-11-04T19:11:28.097Z,95.05
2018-11-04T19:13:55.049Z,94.49
2018-11-04T19:16:22.120Z,93.40
2018-11-04T19:18:50.168Z,92.39
2018-11-04T19:21:17.247Z,91.81
2018-11-04T19:23:45.133Z,93.22
2018-11-04T19:26:12.221Z,96.58
2018-11-04T19:28:39.325Z,96.52
2018-11-04T19:31:07.481Z,95.44
2018-11-04T19:33:34.568Z,95.38
2018-11-04T19:36:01.664Z,96.39
2018-11-04T19:38:28.869Z,97.74
2018-11-04T19:40:56.196Z,96.72
2018-11-04T19:43:23.271Z,94.98
2018-11-04T19:45:50.955Z,92.58
2018-11-04T19:48:18.260Z,91.46
2018-11-04T19:50:45.515Z,92.06
2018-11-04T19:53:13.175Z,91.90
2018-11-04T19:55:40.423Z,92.48
2018-11-04T19:58:07.705Z,94.17
2018-11-04T20:00:34.792Z,93.05
2018-11-04T20:03:02.268Z,92.72
2018-11-04T20:05:30.243Z,93.80
2018-11-04T20:07:57.324Z,92.33
2018-11-04T20:10:24.530Z,93.45
2018-11-04T20:12:57.664Z,94.30
2018-11-04T20:15:25.314Z,97.63
2018-11-04T20:17:52.396Z,98.53
2018-11-04T20:20:23.317Z,100.00
2018-11-04T20:22:50.223Z,100.00
2018-11-04T20:25:23.891Z,100.00
2018-11-04T20:27:51.056Z,100.00
2018-11-04T20:30:18.257Z,100.00
2018-11-04T20:32:51.083Z,100.00
2018-11-04T20:35:18.164Z,100.00
2018-11-04T20:37:45.279Z,100.00
2018-11-04T20:40:18.872Z,100.00
2018-11-04T20:42:46.120Z,100.00
2018-11-04T20:45:13.284Z,100.00
2018-11-04T20:47:46.052Z,100.00
2018-11-04T20:50:18.959Z,100.00
2018-11-04T20:52:46.041Z,100.00
2018-11-04T20:55:13.836Z,100.00
2018-11-04T20:57:44.377Z,100.00
2018-11-04T21:00:12.733Z,100.00
2018-11-04T21:02:41.399Z,100.00
2018-11-04T21:05:08.434Z,100.00
2018-11-04T21:07:36.030Z,100.00
2018-11-04T21:10:04.699Z,100.00
2018-11-04T21:12:31.749Z,100.00
2018-11-04T21:14:58.844Z,100.00
2018-11-04T21:17:26.071Z,100.00
2018-11-04T21:19:53.236Z,100.00
2018-11-04T21:22:20.521Z,100.00
2018-11-04T21:24:47.640Z,100.00
2018-11-04T21:27:14.700Z,100.00
2018-11-04T21:29:42.173Z,100.00
2018-11-04T21:32:09.152Z,100.00
2018-11-04T21:34:36.713Z,100.00
2018-11-04T21:37:06.116Z,100.00
2018-11-04T21:39:33.213Z,100.00
2018-11-04T21:42:00.567Z,100.00
2018-11-04T21:44:27.853Z,100.00
2018-11-04T21:46:55.269Z,100.00
2018-11-04T21:49:22.394Z,100.00
2018-11-04T21:51:49.425Z,100.00
2018-11-04T21:54:16.517Z,100.00
2018-11-04T21:56:43.814Z,100.00
2018-11-04T21:59:10.856Z,100.00
2018-11-04T22:01:38.183Z,100.00
2018-11-04T22:04:05.416Z,100.00
2018-11-04T22:06:32.424Z,100.00
2018-11-04T22:08:59.515Z,100.00
2018-11-04T22:11:26.596Z,100.00
2018-11-04T22:13:54.268Z,100.00
2018-11-04T22:16:21.276Z,100.00
2018-11-04T22:18:48.352Z,100.00
2018-11-04T22:21:15.467Z,100.00
2018-11-04T22:23:42.892Z,100.00
2018-11-04T22:26:09.959Z,100.00
2018-11-04T22:28:37.024Z,100.00
2018-11-04T22:31:04.459Z,100.00
2018-11-04T22:33:31.519Z,100.00
2018-11-04T22:35:58.660Z,100.00
2018-11-04T22:38:25.805Z,100.00
2018-11-04T22:40:52.875Z,100.00
2018-11-04T22:43:19.949Z,100.00
2018-11-04T22:45:47.094Z,100.00
2018-11-04T22:48:14.164Z,100.00
2018-11-04T22:50:41.264Z,100.00
2018-11-04T22:53:08.337Z,100.00
2018-11-04T22:55:35.434Z,100.00
2018-11-04T22:58:06.452Z,100.00
2018-11-04T23:00:39.724Z,100.00
2018-11-04T23:03:06.996Z,100.00
2018-11-04T23:05:34.048Z,100.00
2018-11-04T23:08:01.143Z,100.00
2018-11-04T23:10:28.211Z,99.00
2018-11-04T23:12:55.415Z,98.76
2018-11-04T23:15:22.521Z,96.52
2018-11-04T23:17:49.602Z,97.26
2018-11-04T23:20:16.847Z,96.36
2018-11-04T23:22:44.215Z,95.34
2018-11-04T23:25:12.484Z,94.58
2018-11-04T23:27:41.177Z,94.90
2018-11-04T23:30:13.249Z,95.96
2018-11-04T23:32:40.595Z,94.52
2018-11-04T23:35:09.771Z,95.27
2018-11-04T23:37:36.850Z,95.30
2018-11-04T23:40:04.493Z,95.25
2018-11-04T23:42:31.560Z,94.23
2018-11-04T23:44:58.640Z,94.91
2018-11-04T23:47:25.748Z,94.73
2018-11-04T23:49:53.186Z,92.64
2018-11-04T23:52:20.283Z,93.88
2018-11-04T23:54:47.359Z,93.73
2018-11-04T23:57:14.445Z,91.29
2018-11-04T23:59:41.609Z,93.19
